sensor_id;sensor_type;location;lat;lon;timestamp;temperature;humidity
59007;DHT22;44792;52.760;6.726;2023-04-19T00:01:24;9.40;99.90
59007;DHT22;44792;52.760;6.726;2023-04-19T00:03:50;9.50;99.90
59007;DHT22;44792;52.760;6.726;2023-04-19T00:06:16;9.40;99.90
59007;DHT22;44792;52.760;6.726;2023-04-19T00:08:42;9.40;99.90
59007;DHT22;44792;52.760;6.726;2023-04-19T00:11:09;9.40;99.90
59007;DHT22;44792;52.760;6.726;2023-04-19T00:13:35;9.40;99.90
59007;DHT22;44792;52.760;6.726;2023-04-19T00:16:01;9.40;99.90
59007;DHT22;44792;52.760;6.726;2023-04-19T00:18:27;9.40;99.90
59007;DHT22;44792;52.760;6.726;2023-04-19T00:20:52;9.40;99.90
59007;DHT22;44792;52.760;6.726;2023-04-19T00:23:18;9.40;99.90
59007;DHT22;44792;52.760;6.726;2023-04-19T00:25:48;9.40;99.90
59007;DHT22;44792;52.760;6.726;2023-04-19T00:28:14;9.40;99.90
59007;DHT22;44792;52.760;6.726;2023-04-19T00:30:39;9.30;99.90
59007;DHT22;44792;52.760;6.726;2023-04-19T00:33:05;9.40;99.90
59007;DHT22;44792;52.760;6.726;2023-04-19T00:35:38;9.40;99.90
59007;DHT22;44792;52.760;6.726;2023-04-19T00:38:05;9.40;99.90
59007;DHT22;44792;52.760;6.726;2023-04-19T00:40:31;9.40;99.90
59007;DHT22;44792;52.760;6.726;2023-04-19T00:42:56;9.40;99.90
59007;DHT22;44792;52.760;6.726;2023-04-19T00:45:22;9.30;99.90
59007;DHT22;44792;52.760;6.726;2023-04-19T00:47:48;9.30;99.90
59007;DHT22;44792;52.760;6.726;2023-04-19T00:50:14;9.30;99.90
59007;DHT22;44792;52.760;6.726;2023-04-19T00:52:40;9.20;99.90
59007;DHT22;44792;52.760;6.726;2023-04-19T00:55:07;9.20;99.90
59007;DHT22;44792;52.760;6.726;2023-04-19T00:57:32;9.20;99.90
59007;DHT22;44792;52.760;6.726;2023-04-19T00:59:58;9.30;99.90
59007;DHT22;44792;52.760;6.726;2023-04-19T01:02:24;9.30;99.90
59007;DHT22;44792;52.760;6.726;2023-04-19T01:04:50;9.30;99.90
59007;DHT22;44792;52.760;6.726;2023-04-19T01:07:17;9.20;99.90
59007;DHT22;44792;52.760;6.726;2023-04-19T01:09:44;9.20;99.90
59007;DHT22;44792;52.760;6.726;2023-04-19T01:12:10;9.20;99.90
59007;DHT22;44792;52.760;6.726;2023-04-19T01:14:36;9.20;99.90
59007;DHT22;44792;52.760;6.726;2023-04-19T01:17:02;9.20;99.90
59007;DHT22;44792;52.760;6.726;2023-04-19T01:19:27;9.20;99.90
59007;DHT22;44792;52.760;6.726;2023-04-19T01:21:53;9.20;99.90
59007;DHT22;44792;52.760;6.726;2023-04-19T01:24:20;9.20;99.90
59007;DHT22;44792;52.760;6.726;2023-04-19T01:26:46;9.20;99.90
59007;DHT22;44792;52.760;6.726;2023-04-19T01:29:12;9.20;99.90
59007;DHT22;44792;52.760;6.726;2023-04-19T01:31:38;9.20;99.90
59007;DHT22;44792;52.760;6.726;2023-04-19T01:34:03;9.20;99.90
59007;DHT22;44792;52.760;6.726;2023-04-19T01:36:30;9.20;99.90
59007;DHT22;44792;52.760;6.726;2023-04-19T01:38:55;9.20;99.90
59007;DHT22;44792;52.760;6.726;2023-04-19T01:41:21;9.20;99.90
59007;DHT22;44792;52.760;6.726;2023-04-19T01:43:51;9.20;99.90
59007;DHT22;44792;52.760;6.726;2023-04-19T01:46:17;9.20;99.90
59007;DHT22;44792;52.760;6.726;2023-04-19T01:48:43;9.10;99.90
59007;DHT22;44792;52.760;6.726;2023-04-19T01:51:08;9.10;99.90
59007;DHT22;44792;52.760;6.726;2023-04-19T01:53:34;9.00;99.90
59007;DHT22;44792;52.760;6.726;2023-04-19T01:56:00;9.00;99.90
59007;DHT22;44792;52.760;6.726;2023-04-19T01:58:25;9.00;99.90
59007;DHT22;44792;52.760;6.726;2023-04-19T02:00:51;9.00;99.90
59007;DHT22;44792;52.760;6.726;2023-04-19T02:03:17;9.00;99.90
59007;DHT22;44792;52.760;6.726;2023-04-19T02:05:43;8.90;99.90
59007;DHT22;44792;52.760;6.726;2023-04-19T02:08:08;8.90;99.90
59007;DHT22;44792;52.760;6.726;2023-04-19T02:10:34;8.90;99.90
59007;DHT22;44792;52.760;6.726;2023-04-19T02:13:00;8.80;99.90
59007;DHT22;44792;52.760;6.726;2023-04-19T02:15:26;8.90;99.90
59007;DHT22;44792;52.760;6.726;2023-04-19T02:17:51;8.80;99.90
59007;DHT22;44792;52.760;6.726;2023-04-19T02:20:17;8.80;99.90
59007;DHT22;44792;52.760;6.726;2023-04-19T02:22:43;8.80;99.90
59007;DHT22;44792;52.760;6.726;2023-04-19T02:25:08;8.80;99.90
59007;DHT22;44792;52.760;6.726;2023-04-19T02:27:34;8.80;99.90
59007;DHT22;44792;52.760;6.726;2023-04-19T02:30:00;8.80;99.90
59007;DHT22;44792;52.760;6.726;2023-04-19T02:32:26;8.70;99.90
59007;DHT22;44792;52.760;6.726;2023-04-19T02:34:52;8.70;99.90
59007;DHT22;44792;52.760;6.726;2023-04-19T02:37:17;8.70;99.90
59007;DHT22;44792;52.760;6.726;2023-04-19T02:39:43;8.60;99.90
59007;DHT22;44792;52.760;6.726;2023-04-19T02:42:10;8.60;99.90
59007;DHT22;44792;52.760;6.726;2023-04-19T02:44:36;8.60;99.90
59007;DHT22;44792;52.760;6.726;2023-04-19T02:47:01;8.60;99.90
59007;DHT22;44792;52.760;6.726;2023-04-19T02:59:58;8.60;99.90
59007;DHT22;44792;52.760;6.726;2023-04-19T03:02:24;8.50;99.90
59007;DHT22;44792;52.760;6.726;2023-04-19T03:04:50;8.50;99.90
59007;DHT22;44792;52.760;6.726;2023-04-19T03:07:17;8.50;99.90
59007;DHT22;44792;52.760;6.726;2023-04-19T03:09:43;8.50;99.90
59007;DHT22;44792;52.760;6.726;2023-04-19T03:12:09;8.40;99.90
59007;DHT22;44792;52.760;6.726;2023-04-19T03:14:34;8.40;99.90
59007;DHT22;44792;52.760;6.726;2023-04-19T03:17:00;8.40;99.90
59007;DHT22;44792;52.760;6.726;2023-04-19T03:19:26;8.40;99.90
59007;DHT22;44792;52.760;6.726;2023-04-19T03:21:52;8.30;99.90
59007;DHT22;44792;52.760;6.726;2023-04-19T03:24:18;8.20;99.90
59007;DHT22;44792;52.760;6.726;2023-04-19T03:26:44;8.20;99.90
59007;DHT22;44792;52.760;6.726;2023-04-19T03:29:11;8.10;99.90
59007;DHT22;44792;52.760;6.726;2023-04-19T03:31:38;8.10;99.90
59007;DHT22;44792;52.760;6.726;2023-04-19T03:34:04;8.00;99.90
59007;DHT22;44792;52.760;6.726;2023-04-19T03:36:30;8.00;99.90
59007;DHT22;44792;52.760;6.726;2023-04-19T03:38:55;8.00;99.90
59007;DHT22;44792;52.760;6.726;2023-04-19T03:41:23;8.00;99.90
59007;DHT22;44792;52.760;6.726;2023-04-19T03:43:49;7.90;99.90
59007;DHT22;44792;52.760;6.726;2023-04-19T03:46:15;7.80;99.90
59007;DHT22;44792;52.760;6.726;2023-04-19T03:48:41;7.80;99.90
59007;DHT22;44792;52.760;6.726;2023-04-19T03:51:06;7.80;99.90
59007;DHT22;44792;52.760;6.726;2023-04-19T03:53:32;7.70;99.90
59007;DHT22;44792;52.760;6.726;2023-04-19T03:55:58;7.70;99.90
59007;DHT22;44792;52.760;6.726;2023-04-19T03:58:23;7.60;99.90
59007;DHT22;44792;52.760;6.726;2023-04-19T04:00:49;7.60;99.90
59007;DHT22;44792;52.760;6.726;2023-04-19T04:03:16;7.60;99.90
59007;DHT22;44792;52.760;6.726;2023-04-19T04:05:42;7.50;99.90
59007;DHT22;44792;52.760;6.726;2023-04-19T04:08:07;7.50;99.90
59007;DHT22;44792;52.760;6.726;2023-04-19T04:10:33;7.40;99.90
59007;DHT22;44792;52.760;6.726;2023-04-19T04:12:59;7.40;99.90
59007;DHT22;44792;52.760;6.726;2023-04-19T04:15:24;7.30;99.90
59007;DHT22;44792;52.760;6.726;2023-04-19T04:17:50;7.30;99.90
59007;DHT22;44792;52.760;6.726;2023-04-19T04:20:16;7.30;99.90
59007;DHT22;44792;52.760;6.726;2023-04-19T04:22:42;7.30;99.90
59007;DHT22;44792;52.760;6.726;2023-04-19T04:25:10;7.30;99.90
59007;DHT22;44792;52.760;6.726;2023-04-19T04:27:37;7.30;99.90
59007;DHT22;44792;52.760;6.726;2023-04-19T04:30:05;7.20;99.90
59007;DHT22;44792;52.760;6.726;2023-04-19T04:32:31;7.20;99.90
59007;DHT22;44792;52.760;6.726;2023-04-19T04:35:01;7.20;99.90
59007;DHT22;44792;52.760;6.726;2023-04-19T04:37:27;7.20;99.90
59007;DHT22;44792;52.760;6.726;2023-04-19T04:39:52;7.20;99.90
59007;DHT22;44792;52.760;6.726;2023-04-19T04:42:18;7.10;99.90
59007;DHT22;44792;52.760;6.726;2023-04-19T04:44:46;7.20;99.90
59007;DHT22;44792;52.760;6.726;2023-04-19T04:47:12;7.10;99.90
59007;DHT22;44792;52.760;6.726;2023-04-19T04:49:38;7.10;99.90
59007;DHT22;44792;52.760;6.726;2023-04-19T04:52:04;7.10;99.90
59007;DHT22;44792;52.760;6.726;2023-04-19T04:54:30;7.10;99.90
59007;DHT22;44792;52.760;6.726;2023-04-19T04:56:58;7.00;99.90
59007;DHT22;44792;52.760;6.726;2023-04-19T04:59:23;7.10;99.90
59007;DHT22;44792;52.760;6.726;2023-04-19T05:01:49;7.00;99.90
59007;DHT22;44792;52.760;6.726;2023-04-19T05:04:15;7.00;99.90
59007;DHT22;44792;52.760;6.726;2023-04-19T05:06:40;7.00;99.90
59007;DHT22;44792;52.760;6.726;2023-04-19T05:09:06;7.00;99.90
59007;DHT22;44792;52.760;6.726;2023-04-19T05:11:32;7.00;99.90
59007;DHT22;44792;52.760;6.726;2023-04-19T05:13:58;7.10;99.90
59007;DHT22;44792;52.760;6.726;2023-04-19T05:16:26;7.20;99.90
59007;DHT22;44792;52.760;6.726;2023-04-19T05:18:51;7.20;99.90
59007;DHT22;44792;52.760;6.726;2023-04-19T05:21:17;7.30;99.90
59007;DHT22;44792;52.760;6.726;2023-04-19T05:23:43;7.40;99.90
59007;DHT22;44792;52.760;6.726;2023-04-19T05:26:08;7.40;99.90
59007;DHT22;44792;52.760;6.726;2023-04-19T05:28:37;7.50;99.90
59007;DHT22;44792;52.760;6.726;2023-04-19T05:31:03;7.50;99.90
59007;DHT22;44792;52.760;6.726;2023-04-19T05:33:29;7.50;99.90
59007;DHT22;44792;52.760;6.726;2023-04-19T05:35:54;7.50;99.90
59007;DHT22;44792;52.760;6.726;2023-04-19T05:38:20;7.70;99.90
59007;DHT22;44792;52.760;6.726;2023-04-19T05:40:46;7.80;99.90
59007;DHT22;44792;52.760;6.726;2023-04-19T05:43:12;7.90;99.90
59007;DHT22;44792;52.760;6.726;2023-04-19T05:45:37;7.90;99.90
59007;DHT22;44792;52.760;6.726;2023-04-19T05:48:03;7.90;99.90
59007;DHT22;44792;52.760;6.726;2023-04-19T05:50:30;8.00;99.90
59007;DHT22;44792;52.760;6.726;2023-04-19T05:52:55;8.00;99.90
59007;DHT22;44792;52.760;6.726;2023-04-19T05:55:21;8.20;99.90
59007;DHT22;44792;52.760;6.726;2023-04-19T05:57:47;8.20;99.90
59007;DHT22;44792;52.760;6.726;2023-04-19T06:00:13;8.20;99.90
59007;DHT22;44792;52.760;6.726;2023-04-19T06:02:40;8.20;99.90
59007;DHT22;44792;52.760;6.726;2023-04-19T06:05:06;8.30;99.90
59007;DHT22;44792;52.760;6.726;2023-04-19T06:07:32;8.40;99.90
59007;DHT22;44792;52.760;6.726;2023-04-19T06:09:57;8.60;99.90
59007;DHT22;44792;52.760;6.726;2023-04-19T06:12:23;8.50;99.90
59007;DHT22;44792;52.760;6.726;2023-04-19T06:14:49;8.50;99.90
59007;DHT22;44792;52.760;6.726;2023-04-19T06:17:15;8.50;99.90
59007;DHT22;44792;52.760;6.726;2023-04-19T06:19:41;8.60;99.90
59007;DHT22;44792;52.760;6.726;2023-04-19T06:22:07;8.70;99.90
59007;DHT22;44792;52.760;6.726;2023-04-19T06:24:33;8.80;99.90
59007;DHT22;44792;52.760;6.726;2023-04-19T06:26:58;8.90;99.90
59007;DHT22;44792;52.760;6.726;2023-04-19T06:29:24;8.80;99.90
59007;DHT22;44792;52.760;6.726;2023-04-19T06:31:50;8.80;99.90
59007;DHT22;44792;52.760;6.726;2023-04-19T06:34:16;8.80;99.90
59007;DHT22;44792;52.760;6.726;2023-04-19T06:36:41;8.80;99.90
59007;DHT22;44792;52.760;6.726;2023-04-19T06:39:07;8.80;99.90
59007;DHT22;44792;52.760;6.726;2023-04-19T06:41:33;8.90;99.90
59007;DHT22;44792;52.760;6.726;2023-04-19T06:43:58;8.90;99.90
59007;DHT22;44792;52.760;6.726;2023-04-19T06:46:24;8.90;99.90
59007;DHT22;44792;52.760;6.726;2023-04-19T06:48:51;8.90;99.90
59007;DHT22;44792;52.760;6.726;2023-04-19T06:51:17;9.00;99.90
59007;DHT22;44792;52.760;6.726;2023-04-19T06:53:43;9.00;99.90
59007;DHT22;44792;52.760;6.726;2023-04-19T06:56:09;9.10;99.90
59007;DHT22;44792;52.760;6.726;2023-04-19T06:58:35;9.00;99.90
59007;DHT22;44792;52.760;6.726;2023-04-19T07:01:02;9.10;99.90
59007;DHT22;44792;52.760;6.726;2023-04-19T07:03:28;9.20;99.90
59007;DHT22;44792;52.760;6.726;2023-04-19T07:05:54;9.30;99.90
59007;DHT22;44792;52.760;6.726;2023-04-19T07:08:23;9.40;99.90
59007;DHT22;44792;52.760;6.726;2023-04-19T07:10:49;9.30;99.90
59007;DHT22;44792;52.760;6.726;2023-04-19T07:13:14;9.30;99.90
59007;DHT22;44792;52.760;6.726;2023-04-19T07:15:40;9.50;99.90
59007;DHT22;44792;52.760;6.726;2023-04-19T07:18:06;9.50;99.90
59007;DHT22;44792;52.760;6.726;2023-04-19T07:20:31;9.50;99.90
59007;DHT22;44792;52.760;6.726;2023-04-19T07:22:58;9.60;99.90
59007;DHT22;44792;52.760;6.726;2023-04-19T07:25:24;9.60;99.90
59007;DHT22;44792;52.760;6.726;2023-04-19T07:27:52;9.60;99.90
59007;DHT22;44792;52.760;6.726;2023-04-19T07:30:18;9.70;99.90
59007;DHT22;44792;52.760;6.726;2023-04-19T07:32:44;9.70;99.90
59007;DHT22;44792;52.760;6.726;2023-04-19T07:35:10;9.80;99.90
59007;DHT22;44792;52.760;6.726;2023-04-19T07:37:36;9.80;99.90
59007;DHT22;44792;52.760;6.726;2023-04-19T07:40:02;9.90;99.90
59007;DHT22;44792;52.760;6.726;2023-04-19T07:42:29;9.90;99.90
59007;DHT22;44792;52.760;6.726;2023-04-19T07:44:55;10.00;99.90
59007;DHT22;44792;52.760;6.726;2023-04-19T07:47:21;10.00;99.90
59007;DHT22;44792;52.760;6.726;2023-04-19T07:49:51;10.10;99.90
59007;DHT22;44792;52.760;6.726;2023-04-19T07:52:16;10.00;99.90
59007;DHT22;44792;52.760;6.726;2023-04-19T07:54:42;10.20;99.90
59007;DHT22;44792;52.760;6.726;2023-04-19T07:57:08;10.20;99.90
59007;DHT22;44792;52.760;6.726;2023-04-19T07:59:34;10.20;99.90
59007;DHT22;44792;52.760;6.726;2023-04-19T08:02:00;10.30;99.90
59007;DHT22;44792;52.760;6.726;2023-04-19T08:04:25;10.40;99.90
59007;DHT22;44792;52.760;6.726;2023-04-19T08:06:51;10.50;99.90
59007;DHT22;44792;52.760;6.726;2023-04-19T08:09:17;10.70;99.90
59007;DHT22;44792;52.760;6.726;2023-04-19T08:11:43;10.60;99.90
59007;DHT22;44792;52.760;6.726;2023-04-19T08:14:09;10.60;99.90
59007;DHT22;44792;52.760;6.726;2023-04-19T08:16:35;10.50;99.90
59007;DHT22;44792;52.760;6.726;2023-04-19T08:19:00;10.50;99.90
59007;DHT22;44792;52.760;6.726;2023-04-19T08:21:26;10.50;99.90
59007;DHT22;44792;52.760;6.726;2023-04-19T08:23:52;10.50;99.90
59007;DHT22;44792;52.760;6.726;2023-04-19T08:26:18;10.70;99.90
59007;DHT22;44792;52.760;6.726;2023-04-19T08:28:43;10.70;99.90
59007;DHT22;44792;52.760;6.726;2023-04-19T08:31:09;10.80;99.90
59007;DHT22;44792;52.760;6.726;2023-04-19T08:33:35;10.80;99.90
59007;DHT22;44792;52.760;6.726;2023-04-19T08:36:01;10.90;99.90
59007;DHT22;44792;52.760;6.726;2023-04-19T08:38:26;10.90;99.90
59007;DHT22;44792;52.760;6.726;2023-04-19T08:40:53;10.90;99.90
59007;DHT22;44792;52.760;6.726;2023-04-19T08:43:24;11.00;99.90
59007;DHT22;44792;52.760;6.726;2023-04-19T08:45:50;11.00;99.90
59007;DHT22;44792;52.760;6.726;2023-04-19T08:48:17;11.00;99.90
59007;DHT22;44792;52.760;6.726;2023-04-19T08:50:43;11.00;99.90
59007;DHT22;44792;52.760;6.726;2023-04-19T08:53:11;11.10;99.90
59007;DHT22;44792;52.760;6.726;2023-04-19T08:55:39;11.20;99.90
59007;DHT22;44792;52.760;6.726;2023-04-19T08:58:05;11.30;99.90
59007;DHT22;44792;52.760;6.726;2023-04-19T09:00:33;11.40;99.90
59007;DHT22;44792;52.760;6.726;2023-04-19T09:02:58;11.40;99.90
59007;DHT22;44792;52.760;6.726;2023-04-19T09:05:24;11.40;99.90
59007;DHT22;44792;52.760;6.726;2023-04-19T09:07:50;11.40;99.90
59007;DHT22;44792;52.760;6.726;2023-04-19T09:10:20;11.40;99.90
59007;DHT22;44792;52.760;6.726;2023-04-19T09:13:18;11.50;99.90
59007;DHT22;44792;52.760;6.726;2023-04-19T09:15:43;11.60;99.90
59007;DHT22;44792;52.760;6.726;2023-04-19T09:18:10;11.60;99.90
59007;DHT22;44792;52.760;6.726;2023-04-19T09:20:43;11.60;98.30
59007;DHT22;44792;52.760;6.726;2023-04-19T09:23:10;11.60;98.10
59007;DHT22;44792;52.760;6.726;2023-04-19T09:25:38;11.70;99.90
59007;DHT22;44792;52.760;6.726;2023-04-19T09:28:10;11.60;98.30
59007;DHT22;44792;52.760;6.726;2023-04-19T09:30:37;11.70;98.10
59007;DHT22;44792;52.760;6.726;2023-04-19T09:33:03;12.00;99.00
59007;DHT22;44792;52.760;6.726;2023-04-19T09:35:41;12.10;99.00
59007;DHT22;44792;52.760;6.726;2023-04-19T09:38:07;12.00;97.40
59007;DHT22;44792;52.760;6.726;2023-04-19T09:40:33;12.00;95.80
59007;DHT22;44792;52.760;6.726;2023-04-19T09:42:59;11.90;96.00
59007;DHT22;44792;52.760;6.726;2023-04-19T09:45:26;12.00;97.20
59007;DHT22;44792;52.760;6.726;2023-04-19T09:48:03;12.10;94.70
59007;DHT22;44792;52.760;6.726;2023-04-19T09:50:29;12.20;95.80
59007;DHT22;44792;52.760;6.726;2023-04-19T09:52:56;12.20;97.80
59007;DHT22;44792;52.760;6.726;2023-04-19T09:55:23;12.20;95.40
59007;DHT22;44792;52.760;6.726;2023-04-19T09:57:51;12.20;96.60
59007;DHT22;44792;52.760;6.726;2023-04-19T10:00:17;12.10;96.20
59007;DHT22;44792;52.760;6.726;2023-04-19T10:02:44;12.30;97.50
59007;DHT22;44792;52.760;6.726;2023-04-19T10:05:14;12.20;97.30
59007;DHT22;44792;52.760;6.726;2023-04-19T10:07:41;12.30;97.40
59007;DHT22;44792;52.760;6.726;2023-04-19T10:10:07;12.30;98.00
59007;DHT22;44792;52.760;6.726;2023-04-19T10:12:34;12.40;99.80
59007;DHT22;44792;52.760;6.726;2023-04-19T10:15:00;12.50;98.20
59007;DHT22;44792;52.760;6.726;2023-04-19T10:17:26;12.60;97.70
59007;DHT22;44792;52.760;6.726;2023-04-19T10:20:05;12.50;96.70
59007;DHT22;44792;52.760;6.726;2023-04-19T10:22:34;12.60;96.10
59007;DHT22;44792;52.760;6.726;2023-04-19T10:25:13;12.70;95.20
59007;DHT22;44792;52.760;6.726;2023-04-19T10:27:43;12.70;93.50
59007;DHT22;44792;52.760;6.726;2023-04-19T10:30:21;12.60;90.30
59007;DHT22;44792;52.760;6.726;2023-04-19T10:32:55;12.70;91.10
59007;DHT22;44792;52.760;6.726;2023-04-19T10:35:33;12.60;91.20
59007;DHT22;44792;52.760;6.726;2023-04-19T10:38:12;12.60;91.70
59007;DHT22;44792;52.760;6.726;2023-04-19T10:43:19;12.70;91.60
59007;DHT22;44792;52.760;6.726;2023-04-19T10:45:46;12.90;94.40
59007;DHT22;44792;52.760;6.726;2023-04-19T10:48:51;12.90;92.50
59007;DHT22;44792;52.760;6.726;2023-04-19T10:51:22;13.00;91.00
59007;DHT22;44792;52.760;6.726;2023-04-19T10:53:53;13.00;88.10
59007;DHT22;44792;52.760;6.726;2023-04-19T11:04:04;13.20;87.00
59007;DHT22;44792;52.760;6.726;2023-04-19T11:06:34;13.20;85.90
59007;DHT22;44792;52.760;6.726;2023-04-19T11:09:03;13.20;86.20
59007;DHT22;44792;52.760;6.726;2023-04-19T11:11:35;13.10;86.40
59007;DHT22;44792;52.760;6.726;2023-04-19T11:14:02;13.20;86.00
59007;DHT22;44792;52.760;6.726;2023-04-19T11:16:29;13.30;87.80
59007;DHT22;44792;52.760;6.726;2023-04-19T11:18:55;13.20;84.30
59007;DHT22;44792;52.760;6.726;2023-04-19T11:21:20;13.10;87.00
59007;DHT22;44792;52.760;6.726;2023-04-19T11:23:46;13.10;83.50
59007;DHT22;44792;52.760;6.726;2023-04-19T11:26:16;13.20;86.40
59007;DHT22;44792;52.760;6.726;2023-04-19T11:28:43;13.30;83.70
59007;DHT22;44792;52.760;6.726;2023-04-19T11:31:09;13.30;81.30
59007;DHT22;44792;52.760;6.726;2023-04-19T11:33:36;13.30;82.20
59007;DHT22;44792;52.760;6.726;2023-04-19T11:36:02;13.20;85.10
59007;DHT22;44792;52.760;6.726;2023-04-19T11:38:29;13.40;82.60
59007;DHT22;44792;52.760;6.726;2023-04-19T11:41:02;13.40;84.20
59007;DHT22;44792;52.760;6.726;2023-04-19T11:43:33;13.50;85.50
59007;DHT22;44792;52.760;6.726;2023-04-19T11:46:07;13.40;89.10
59007;DHT22;44792;52.760;6.726;2023-04-19T11:48:33;13.60;90.10
59007;DHT22;44792;52.760;6.726;2023-04-19T11:50:59;13.60;89.70
59007;DHT22;44792;52.760;6.726;2023-04-19T11:53:26;13.50;90.40
59007;DHT22;44792;52.760;6.726;2023-04-19T11:56:02;13.50;90.80
59007;DHT22;44792;52.760;6.726;2023-04-19T12:01:01;13.40;91.80
59007;DHT22;44792;52.760;6.726;2023-04-19T12:03:28;13.50;91.70
59007;DHT22;44792;52.760;6.726;2023-04-19T12:05:55;13.60;91.90
59007;DHT22;44792;52.760;6.726;2023-04-19T12:08:51;13.60;90.10
59007;DHT22;44792;52.760;6.726;2023-04-19T12:11:20;13.50;92.30
59007;DHT22;44792;52.760;6.726;2023-04-19T12:13:48;13.50;91.80
59007;DHT22;44792;52.760;6.726;2023-04-19T12:16:13;13.50;92.80
59007;DHT22;44792;52.760;6.726;2023-04-19T12:18:44;13.60;93.10
59007;DHT22;44792;52.760;6.726;2023-04-19T12:21:12;13.80;93.50
59007;DHT22;44792;52.760;6.726;2023-04-19T12:23:47;13.70;92.40
59007;DHT22;44792;52.760;6.726;2023-04-19T12:26:13;13.80;93.00
59007;DHT22;44792;52.760;6.726;2023-04-19T12:28:39;13.80;91.70
59007;DHT22;44792;52.760;6.726;2023-04-19T12:31:04;13.70;93.60
59007;DHT22;44792;52.760;6.726;2023-04-19T12:33:30;13.70;95.00
59007;DHT22;44792;52.760;6.726;2023-04-19T12:35:56;13.70;95.10
59007;DHT22;44792;52.760;6.726;2023-04-19T12:38:21;13.70;96.30
59007;DHT22;44792;52.760;6.726;2023-04-19T12:40:47;13.60;97.40
59007;DHT22;44792;52.760;6.726;2023-04-19T12:43:13;13.70;96.80
59007;DHT22;44792;52.760;6.726;2023-04-19T12:45:38;13.70;96.90
59007;DHT22;44792;52.760;6.726;2023-04-19T12:48:04;13.70;96.80
59007;DHT22;44792;52.760;6.726;2023-04-19T12:50:31;13.80;96.40
59007;DHT22;44792;52.760;6.726;2023-04-19T12:52:57;13.70;97.60
59007;DHT22;44792;52.760;6.726;2023-04-19T12:55:22;13.60;97.40
59007;DHT22;44792;52.760;6.726;2023-04-19T12:57:48;13.60;97.90
59007;DHT22;44792;52.760;6.726;2023-04-19T13:00:14;13.70;99.00
59007;DHT22;44792;52.760;6.726;2023-04-19T13:02:40;13.90;99.40
59007;DHT22;44792;52.760;6.726;2023-04-19T13:05:06;13.80;97.10
59007;DHT22;44792;52.760;6.726;2023-04-19T13:07:32;13.70;96.90
59007;DHT22;44792;52.760;6.726;2023-04-19T13:09:58;13.70;97.30
59007;DHT22;44792;52.760;6.726;2023-04-19T13:12:24;13.70;96.90
59007;DHT22;44792;52.760;6.726;2023-04-19T13:14:50;13.70;96.30
59007;DHT22;44792;52.760;6.726;2023-04-19T13:17:19;13.60;96.40
59007;DHT22;44792;52.760;6.726;2023-04-19T13:19:45;13.60;96.20
59007;DHT22;44792;52.760;6.726;2023-04-19T13:22:11;13.60;96.90
59007;DHT22;44792;52.760;6.726;2023-04-19T13:24:37;13.70;97.00
59007;DHT22;44792;52.760;6.726;2023-04-19T13:27:03;13.70;97.70
59007;DHT22;44792;52.760;6.726;2023-04-19T13:29:29;13.70;97.10
59007;DHT22;44792;52.760;6.726;2023-04-19T13:31:54;13.70;97.70
59007;DHT22;44792;52.760;6.726;2023-04-19T13:34:20;13.80;96.40
59007;DHT22;44792;52.760;6.726;2023-04-19T13:36:46;13.80;96.80
59007;DHT22;44792;52.760;6.726;2023-04-19T13:39:12;13.70;95.60
59007;DHT22;44792;52.760;6.726;2023-04-19T13:41:37;13.70;95.90
59007;DHT22;44792;52.760;6.726;2023-04-19T13:44:03;13.70;95.90
59007;DHT22;44792;52.760;6.726;2023-04-19T13:46:29;13.70;95.70
59007;DHT22;44792;52.760;6.726;2023-04-19T13:48:55;13.80;96.10
59007;DHT22;44792;52.760;6.726;2023-04-19T13:51:20;14.00;96.40
59007;DHT22;44792;52.760;6.726;2023-04-19T13:53:46;14.00;95.90
59007;DHT22;44792;52.760;6.726;2023-04-19T13:56:12;14.10;96.70
59007;DHT22;44792;52.760;6.726;2023-04-19T13:58:39;14.00;94.40
59007;DHT22;44792;52.760;6.726;2023-04-19T14:01:06;14.00;95.60
59007;DHT22;44792;52.760;6.726;2023-04-19T14:03:32;14.10;94.80
59007;DHT22;44792;52.760;6.726;2023-04-19T14:05:57;14.00;94.80
59007;DHT22;44792;52.760;6.726;2023-04-19T14:08:23;14.00;94.60
59007;DHT22;44792;52.760;6.726;2023-04-19T14:10:49;14.00;94.50
59007;DHT22;44792;52.760;6.726;2023-04-19T14:13:15;13.90;93.10
59007;DHT22;44792;52.760;6.726;2023-04-19T14:15:41;14.00;93.90
59007;DHT22;44792;52.760;6.726;2023-04-19T14:18:07;14.00;94.60
59007;DHT22;44792;52.760;6.726;2023-04-19T14:20:33;14.10;96.00
59007;DHT22;44792;52.760;6.726;2023-04-19T14:22:58;14.10;94.10
59007;DHT22;44792;52.760;6.726;2023-04-19T14:25:25;14.10;94.60
59007;DHT22;44792;52.760;6.726;2023-04-19T14:27:51;14.00;93.80
59007;DHT22;44792;52.760;6.726;2023-04-19T14:30:16;14.10;95.50
59007;DHT22;44792;52.760;6.726;2023-04-19T14:32:42;14.00;92.90
59007;DHT22;44792;52.760;6.726;2023-04-19T14:35:08;14.10;95.20
59007;DHT22;44792;52.760;6.726;2023-04-19T14:37:36;14.00;95.40
59007;DHT22;44792;52.760;6.726;2023-04-19T14:40:02;14.10;94.10
59007;DHT22;44792;52.760;6.726;2023-04-19T14:42:28;14.10;94.20
59007;DHT22;44792;52.760;6.726;2023-04-19T14:44:53;14.10;92.70
59007;DHT22;44792;52.760;6.726;2023-04-19T14:47:19;14.00;94.30
59007;DHT22;44792;52.760;6.726;2023-04-19T14:49:45;14.00;95.10
59007;DHT22;44792;52.760;6.726;2023-04-19T14:52:11;14.00;94.40
59007;DHT22;44792;52.760;6.726;2023-04-19T14:54:37;14.00;93.30
59007;DHT22;44792;52.760;6.726;2023-04-19T14:57:02;14.10;94.10
59007;DHT22;44792;52.760;6.726;2023-04-19T14:59:28;14.10;92.60
59007;DHT22;44792;52.760;6.726;2023-04-19T15:01:54;14.00;94.50
59007;DHT22;44792;52.760;6.726;2023-04-19T15:04:20;14.10;94.10
59007;DHT22;44792;52.760;6.726;2023-04-19T15:06:46;14.00;91.50
59007;DHT22;44792;52.760;6.726;2023-04-19T15:09:12;14.10;93.60
59007;DHT22;44792;52.760;6.726;2023-04-19T15:11:38;14.00;92.50
59007;DHT22;44792;52.760;6.726;2023-04-19T15:14:03;13.80;91.90
59007;DHT22;44792;52.760;6.726;2023-04-19T15:16:29;13.80;93.20
59007;DHT22;44792;52.760;6.726;2023-04-19T15:18:55;13.80;92.40
59007;DHT22;44792;52.760;6.726;2023-04-19T15:21:22;13.90;93.60
59007;DHT22;44792;52.760;6.726;2023-04-19T15:23:48;14.00;91.70
59007;DHT22;44792;52.760;6.726;2023-04-19T15:26:13;13.90;91.90
59007;DHT22;44792;52.760;6.726;2023-04-19T15:28:39;13.80;91.90
59007;DHT22;44792;52.760;6.726;2023-04-19T15:31:06;13.80;92.10
59007;DHT22;44792;52.760;6.726;2023-04-19T15:33:34;13.80;92.20
59007;DHT22;44792;52.760;6.726;2023-04-19T15:36:00;13.80;92.70
59007;DHT22;44792;52.760;6.726;2023-04-19T15:38:28;13.90;92.10
59007;DHT22;44792;52.760;6.726;2023-04-19T15:40:56;13.80;91.40
59007;DHT22;44792;52.760;6.726;2023-04-19T15:43:22;13.80;92.00
59007;DHT22;44792;52.760;6.726;2023-04-19T15:45:49;13.80;92.50
59007;DHT22;44792;52.760;6.726;2023-04-19T15:48:15;13.90;93.50
59007;DHT22;44792;52.760;6.726;2023-04-19T15:50:41;13.90;92.60
59007;DHT22;44792;52.760;6.726;2023-04-19T15:53:07;13.80;92.30
59007;DHT22;44792;52.760;6.726;2023-04-19T15:55:33;13.80;92.10
59007;DHT22;44792;52.760;6.726;2023-04-19T15:57:59;13.80;91.30